createdAt,value
2023-04-25T00:00:27.198Z,8.94
2023-04-25T00:02:57.013Z,8.98
2023-04-25T00:05:25.250Z,8.90
2023-04-25T00:07:53.881Z,8.92
2023-04-25T00:10:21.776Z,8.98
2023-04-25T00:12:49.790Z,9.00
2023-04-25T00:15:18.957Z,9.01
2023-04-25T00:17:47.637Z,8.99
2023-04-25T00:20:15.642Z,8.94
2023-04-25T00:22:43.515Z,8.95
2023-04-25T00:25:11.280Z,8.89
2023-04-25T00:27:40.099Z,8.82
2023-04-25T00:30:08.986Z,8.71
2023-04-25T00:32:38.267Z,8.56
2023-04-25T00:35:06.971Z,8.54
2023-04-25T00:37:34.835Z,8.39
2023-04-25T00:40:03.350Z,8.31
2023-04-25T00:42:31.771Z,8.26
2023-04-25T00:45:00.610Z,8.18
2023-04-25T00:47:28.611Z,8.16
2023-04-25T00:49:57.741Z,8.04
2023-04-25T00:52:25.675Z,7.96
2023-04-25T00:54:53.461Z,7.90
2023-04-25T00:57:21.271Z,7.93
2023-04-25T00:59:49.740Z,7.92
2023-04-25T01:02:17.603Z,7.92
2023-04-25T01:04:45.449Z,7.87
2023-04-25T01:07:14.691Z,7.81
2023-04-25T01:09:43.121Z,8.06
2023-04-25T01:12:11.204Z,8.06
2023-04-25T01:14:39.040Z,7.95
2023-04-25T01:17:08.679Z,7.88
2023-04-25T01:19:37.147Z,7.85
2023-04-25T01:22:06.650Z,7.73
2023-04-25T01:24:35.245Z,7.58
2023-04-25T01:27:03.972Z,7.69
2023-04-25T01:29:32.871Z,7.79
2023-04-25T01:32:01.756Z,7.71
2023-04-25T01:34:29.529Z,7.76
2023-04-25T01:36:57.351Z,7.71
2023-04-25T01:39:26.965Z,7.75
2023-04-25T01:41:55.733Z,7.78
2023-04-25T01:44:25.001Z,7.74
2023-04-25T01:46:52.990Z,7.71
2023-04-25T01:49:21.122Z,7.71
2023-04-25T01:51:48.818Z,7.68
2023-04-25T01:54:16.666Z,7.62
2023-04-25T01:56:46.019Z,7.55
2023-04-25T01:59:13.877Z,7.62
2023-04-25T02:01:41.650Z,7.50
2023-04-25T02:04:09.690Z,7.46
2023-04-25T02:06:37.573Z,7.26
2023-04-25T02:09:05.454Z,7.18
2023-04-25T02:11:33.263Z,7.20
2023-04-25T02:14:02.311Z,7.19
2023-04-25T02:16:31.785Z,6.96
2023-04-25T02:19:00.071Z,6.95
2023-04-25T02:21:27.881Z,7.00
2023-04-25T02:23:55.686Z,7.05
2023-04-25T02:26:24.775Z,7.03
2023-04-25T02:28:53.056Z,7.11
2023-04-25T02:31:22.382Z,7.20
2023-04-25T02:33:51.028Z,7.24
2023-04-25T02:36:18.860Z,6.93
2023-04-25T02:38:46.653Z,7.05
2023-04-25T02:41:14.428Z,6.93
2023-04-25T02:43:42.174Z,6.90
2023-04-25T02:46:09.929Z,6.84
2023-04-25T02:48:38.994Z,6.88
2023-04-25T02:51:06.892Z,6.81
2023-04-25T02:53:34.795Z,6.80
2023-04-25T02:56:02.858Z,6.75
2023-04-25T02:58:30.564Z,6.69
2023-04-25T03:00:58.419Z,6.60
2023-04-25T03:03:26.461Z,6.59
2023-04-25T03:05:55.672Z,6.52
2023-04-25T03:08:23.819Z,6.51
2023-04-25T03:10:53.083Z,6.42
2023-04-25T03:13:20.846Z,6.28
2023-04-25T03:15:48.549Z,6.18
2023-04-25T03:18:16.403Z,5.97
2023-04-25T03:20:44.718Z,5.76
2023-04-25T03:23:13.831Z,5.93
2023-04-25T03:25:41.610Z,5.96
2023-04-25T03:28:09.545Z,6.03
2023-04-25T03:30:37.482Z,6.00
2023-04-25T03:33:05.307Z,5.96
2023-04-25T03:35:33.169Z,5.94
2023-04-25T03:38:01.052Z,6.03
2023-04-25T03:40:30.404Z,6.04
2023-04-25T03:42:58.549Z,6.05
2023-04-25T03:45:26.265Z,6.06
2023-04-25T03:47:54.136Z,5.84
2023-04-25T03:50:22.663Z,5.91
2023-04-25T03:52:50.897Z,5.80
2023-04-25T03:55:18.758Z,5.51
2023-04-25T03:57:47.853Z,5.73
2023-04-25T04:00:16.543Z,5.70
2023-04-25T04:02:45.601Z,5.67
2023-04-25T04:05:14.004Z,5.69
2023-04-25T04:07:43.644Z,5.70
2023-04-25T04:10:12.749Z,5.75
2023-04-25T04:12:40.963Z,5.72
2023-04-25T04:15:11.223Z,5.68
2023-04-25T04:17:39.028Z,5.73
2023-04-25T04:20:08.778Z,5.68
2023-04-25T04:22:36.639Z,5.65
2023-04-25T04:25:06.752Z,5.64
2023-04-25T04:27:35.403Z,5.62
2023-04-25T04:30:04.340Z,5.77
2023-04-25T04:32:34.522Z,5.73
2023-04-25T04:35:02.358Z,5.65
2023-04-25T04:37:30.159Z,5.59
2023-04-25T04:39:58.175Z,5.60
2023-04-25T04:42:26.318Z,5.60
2023-04-25T04:44:55.934Z,5.58
2023-04-25T04:47:24.716Z,5.72
2023-04-25T04:49:53.903Z,5.63
2023-04-25T04:52:21.638Z,5.55
2023-04-25T04:54:49.449Z,5.35
2023-04-25T04:57:17.764Z,5.68
2023-04-25T04:59:45.594Z,5.66
2023-04-25T05:02:13.473Z,5.80
2023-04-25T05:04:41.449Z,5.87
2023-04-25T05:07:10.992Z,6.14
2023-04-25T05:09:38.801Z,6.26
2023-04-25T05:12:07.094Z,6.42
2023-04-25T05:14:35.026Z,6.63
2023-04-25T05:17:05.714Z,6.80
2023-04-25T05:19:34.321Z,7.15
2023-04-25T05:22:02.208Z,7.62
2023-04-25T05:24:31.652Z,7.81
2023-04-25T05:26:59.630Z,7.64
2023-04-25T05:29:27.318Z,7.72
2023-04-25T05:31:55.204Z,7.98
2023-04-25T05:34:23.011Z,7.96
2023-04-25T05:36:50.919Z,7.89
2023-04-25T05:39:18.992Z,8.06
2023-04-25T05:41:48.106Z,8.12
2023-04-25T05:44:17.147Z,8.25
2023-04-25T05:46:45.419Z,8.42
2023-04-25T05:49:13.330Z,8.61
2023-04-25T05:51:43.597Z,8.87
2023-04-25T05:54:11.784Z,9.15
2023-04-25T05:56:39.710Z,9.36
2023-04-25T05:59:08.878Z,9.41
2023-04-25T06:01:36.999Z,9.61
2023-04-25T06:04:05.496Z,9.59
2023-04-25T06:06:33.802Z,9.54
2023-04-25T06:09:01.965Z,9.56
2023-04-25T06:11:29.876Z,9.42
2023-04-25T06:13:58.114Z,9.37
2023-04-25T06:16:27.813Z,9.53
2023-04-25T06:18:56.295Z,9.45
2023-04-25T06:21:24.325Z,9.62
2023-04-25T06:23:52.376Z,9.53
2023-04-25T06:26:20.630Z,9.41
2023-04-25T06:28:48.462Z,9.25
2023-04-25T06:31:16.332Z,8.99
2023-04-25T06:33:45.530Z,8.61
2023-04-25T06:36:13.325Z,8.20
2023-04-25T06:38:41.529Z,8.02
2023-04-25T06:41:09.291Z,7.74
2023-04-25T06:43:37.048Z,7.52
2023-04-25T06:46:04.815Z,7.43
2023-04-25T06:48:32.512Z,7.27
2023-04-25T06:51:01.599Z,7.47
2023-04-25T06:53:29.591Z,7.50
2023-04-25T06:55:57.412Z,7.43
2023-04-25T06:58:25.233Z,7.50
2023-04-25T07:00:53.218Z,7.61
2023-04-25T07:03:23.329Z,7.43
2023-04-25T07:05:51.655Z,7.25
2023-04-25T07:08:21.680Z,7.41
2023-04-25T07:10:50.207Z,7.42
2023-04-25T07:13:18.046Z,7.54
2023-04-25T07:15:46.074Z,7.57
2023-04-25T07:18:13.840Z,7.50
2023-04-25T07:20:41.816Z,7.82
2023-04-25T07:23:09.653Z,7.71
2023-04-25T07:25:38.861Z,7.90
2023-04-25T07:28:06.749Z,8.24
2023-04-25T07:30:40.476Z,8.11
2023-04-25T07:33:08.242Z,8.12
2023-04-25T07:35:36.204Z,8.13
2023-04-25T07:38:04.386Z,8.22
2023-04-25T07:40:32.324Z,8.35
2023-04-25T07:43:01.676Z,8.06
2023-04-25T07:45:29.588Z,8.20
2023-04-25T07:47:57.523Z,7.93
2023-04-25T07:50:25.928Z,7.66
2023-04-25T07:52:53.706Z,7.81
2023-04-25T07:55:21.456Z,7.93
2023-04-25T07:57:49.159Z,8.26
2023-04-25T08:00:19.460Z,8.54
2023-04-25T08:02:47.293Z,8.74
2023-04-25T08:05:16.622Z,8.99
2023-04-25T08:07:46.143Z,8.94
2023-04-25T08:10:13.914Z,8.93
2023-04-25T08:12:41.827Z,8.95
2023-04-25T08:15:10.789Z,8.97
2023-04-25T08:17:39.978Z,9.23
2023-04-25T08:20:09.902Z,9.14
2023-04-25T08:22:37.947Z,10.08
2023-04-25T08:25:06.580Z,10.08
2023-04-25T08:27:34.315Z,10.64
2023-04-25T08:30:02.948Z,10.53
2023-04-25T08:32:31.283Z,10.47
2023-04-25T08:35:00.581Z,11.14
2023-04-25T08:37:28.391Z,11.32
2023-04-25T08:39:59.368Z,11.13
2023-04-25T08:42:29.931Z,12.19
2023-04-25T08:44:58.325Z,12.13
2023-04-25T08:47:28.516Z,11.40
2023-04-25T08:49:56.694Z,11.19
2023-04-25T08:52:26.262Z,11.01
2023-04-25T08:54:56.476Z,10.85
2023-04-25T08:57:25.450Z,10.42
2023-04-25T08:59:54.862Z,10.28
2023-04-25T09:02:22.758Z,9.97
2023-04-25T09:04:51.713Z,9.94
2023-04-25T09:07:22.397Z,9.59
2023-04-25T09:09:51.554Z,9.54
2023-04-25T09:12:20.561Z,9.80
2023-04-25T09:15:05.057Z,9.81
2023-04-25T09:17:33.264Z,9.53
2023-04-25T09:20:09.613Z,9.98
2023-04-25T09:22:38.505Z,10.09
2023-04-25T09:25:11.453Z,10.00
2023-04-25T09:27:51.569Z,10.30
2023-04-25T09:30:19.500Z,10.50
2023-04-25T09:32:47.372Z,10.80
2023-04-25T09:35:25.942Z,11.36
2023-04-25T09:37:53.866Z,11.73
2023-04-25T09:40:23.259Z,11.91
2023-04-25T09:42:51.454Z,12.84
2023-04-25T09:45:19.308Z,12.23
2023-04-25T09:47:47.172Z,12.28
2023-04-25T09:50:20.128Z,11.73
2023-04-25T09:52:47.981Z,11.23
2023-04-25T09:55:17.040Z,11.02
2023-04-25T09:57:51.620Z,11.34
2023-04-25T10:00:22.336Z,10.94
2023-04-25T10:02:53.206Z,11.17
2023-04-25T10:05:21.222Z,10.84
2023-04-25T10:07:49.120Z,10.71
2023-04-25T10:10:17.701Z,11.00
2023-04-25T10:12:47.699Z,11.38
2023-04-25T10:15:17.174Z,11.53
2023-04-25T10:17:45.921Z,10.78
2023-04-25T10:20:14.113Z,10.89
2023-04-25T10:22:44.801Z,11.56
2023-04-25T10:25:14.468Z,13.28
2023-04-25T10:27:42.494Z,14.96
2023-04-25T10:30:16.784Z,15.26
2023-04-25T10:32:46.373Z,15.41
2023-04-25T10:35:17.607Z,16.62
2023-04-25T10:38:01.972Z,17.13
2023-04-25T10:40:30.234Z,18.26
2023-04-25T10:43:18.342Z,16.23
2023-04-25T10:45:56.848Z,15.54
2023-04-25T10:48:28.568Z,14.80
2023-04-25T10:51:10.489Z,13.55
2023-04-25T10:53:38.955Z,13.00
2023-04-25T10:56:14.381Z,12.21
2023-04-25T10:58:45.886Z,12.21
2023-04-25T11:01:16.955Z,12.94
2023-04-25T11:03:48.639Z,13.05
2023-04-25T11:06:25.218Z,12.17
2023-04-25T11:08:53.907Z,16.29
2023-04-25T11:11:22.193Z,16.72
2023-04-25T11:13:51.214Z,15.36
2023-04-25T11:16:27.490Z,13.89
2023-04-25T11:18:59.601Z,13.54
2023-04-25T11:21:28.749Z,14.50
2023-04-25T11:23:58.392Z,15.99
2023-04-25T11:26:27.149Z,15.40
2023-04-25T11:28:59.534Z,15.09
2023-04-25T11:31:28.983Z,13.98
2023-04-25T11:33:59.419Z,13.24
2023-04-25T11:36:28.683Z,12.90
2023-04-25T11:38:56.623Z,12.18
2023-04-25T11:41:24.443Z,11.44
2023-04-25T11:43:55.617Z,11.64
2023-04-25T11:46:24.394Z,12.25
2023-04-25T11:48:53.949Z,12.30
2023-04-25T11:51:21.945Z,11.92
2023-04-25T11:53:49.916Z,14.64
2023-04-25T11:56:18.061Z,16.75
2023-04-25T11:59:00.139Z,19.37
2023-04-25T12:01:31.840Z,20.97
2023-04-25T12:04:14.984Z,20.64
2023-04-25T12:06:44.573Z,19.49
2023-04-25T12:09:14.528Z,18.55
2023-04-25T12:11:45.911Z,15.56
2023-04-25T12:14:13.942Z,14.01
2023-04-25T12:16:45.837Z,13.76
2023-04-25T12:19:17.556Z,13.71
2023-04-25T12:21:57.220Z,13.17
2023-04-25T12:24:28.375Z,12.70
2023-04-25T12:27:06.639Z,12.47
2023-04-25T12:32:07.851Z,11.85
2023-04-25T12:34:37.168Z,11.46
2023-04-25T12:37:05.027Z,11.09
2023-04-25T12:39:32.810Z,10.81
2023-04-25T12:42:00.784Z,11.08
2023-04-25T12:44:28.676Z,11.66
2023-04-25T12:46:56.878Z,12.09
2023-04-25T12:49:24.658Z,12.20
2023-04-25T12:51:53.806Z,15.09
2023-04-25T12:54:21.691Z,17.24
2023-04-25T12:56:49.623Z,18.02
2023-04-25T12:59:17.439Z,16.85
2023-04-25T13:01:46.614Z,16.58
2023-04-25T13:04:14.686Z,15.14
2023-04-25T13:06:42.658Z,14.88
2023-04-25T13:09:13.893Z,15.22
2023-04-25T13:11:42.311Z,16.21
2023-04-25T13:14:10.125Z,15.92
2023-04-25T13:16:38.051Z,16.61
2023-04-25T13:19:06.550Z,15.46
2023-04-25T13:21:34.375Z,14.92
2023-04-25T13:24:02.100Z,14.37
2023-04-25T13:26:31.267Z,13.43
2023-04-25T13:28:59.034Z,12.92
2023-04-25T13:31:27.150Z,12.36
2023-04-25T13:33:55.057Z,11.97
2023-04-25T13:36:22.889Z,11.79
2023-04-25T13:38:51.453Z,11.97
2023-04-25T13:41:19.981Z,11.62
2023-04-25T13:43:50.011Z,11.91
2023-04-25T13:48:49.724Z,10.84
2023-04-25T13:51:18.666Z,10.90
2023-04-25T13:53:47.443Z,10.48
2023-04-25T13:56:15.246Z,9.69
2023-04-25T13:58:43.149Z,10.14
2023-04-25T14:01:12.470Z,10.60
2023-04-25T14:03:40.367Z,10.62
2023-04-25T14:06:09.638Z,10.40
2023-04-25T14:08:37.470Z,10.53
2023-04-25T14:11:05.282Z,10.37
2023-04-25T14:13:33.095Z,10.48
2023-04-25T14:16:01.078Z,10.38
2023-04-25T14:18:30.157Z,10.54
2023-04-25T14:20:57.937Z,10.73
2023-04-25T14:23:25.802Z,11.02
2023-04-25T14:25:53.601Z,11.11
2023-04-25T14:28:22.275Z,11.71
2023-04-25T14:30:50.024Z,11.48
2023-04-25T14:33:17.818Z,12.21
2023-04-25T14:35:47.172Z,12.72
2023-04-25T14:38:15.558Z,13.08
2023-04-25T14:40:43.551Z,15.21
2023-04-25T14:43:11.504Z,15.36
2023-04-25T14:45:39.286Z,16.63
2023-04-25T14:48:07.776Z,15.01
2023-04-25T14:50:35.830Z,14.30
2023-04-25T14:53:04.928Z,13.99
2023-04-25T14:55:32.784Z,13.47
2023-04-25T14:58:00.887Z,12.27
2023-04-25T15:00:29.233Z,13.74
2023-04-25T15:02:58.205Z,13.88
2023-04-25T15:05:26.559Z,13.79
2023-04-25T15:07:54.268Z,14.00
2023-04-25T15:10:24.811Z,13.22
2023-04-25T15:12:54.520Z,12.80
2023-04-25T15:15:26.912Z,13.07
2023-04-25T15:17:58.744Z,12.83
2023-04-25T15:20:28.497Z,12.43
2023-04-25T15:22:56.473Z,12.59
2023-04-25T15:25:25.797Z,13.00
2023-04-25T15:27:55.858Z,12.53
2023-04-25T15:30:23.903Z,12.01
2023-04-25T15:32:52.502Z,12.08
2023-04-25T15:35:22.746Z,12.08
2023-04-25T15:37:51.610Z,12.33
2023-04-25T15:40:19.758Z,12.91
2023-04-25T15:42:51.652Z,13.51
2023-04-25T15:45:20.785Z,14.03
2023-04-25T15:47:49.037Z,13.50
2023-04-25T15:50:16.918Z,13.63
2023-04-25T15:52:44.789Z,14.01
2023-04-25T15:55:14.381Z,14.31
2023-04-25T15:57:42.508Z,13.94
2023-04-25T16:00:15.041Z,13.55
2023-04-25T16:02:44.281Z,13.53
2023-04-25T16:05:13.152Z,13.26
2023-04-25T16:07:42.840Z,12.93
2023-04-25T16:10:12.148Z,13.01
2023-04-25T16:12:40.287Z,12.23
2023-04-25T16:15:09.009Z,12.09
2023-04-25T16:17:38.314Z,12.29
2023-04-25T16:20:10.458Z,12.52
2023-04-25T16:22:39.435Z,13.19
2023-04-25T16:25:08.089Z,12.83
2023-04-25T16:27:52.435Z,12.70
2023-04-25T16:30:28.515Z,12.09
2023-04-25T16:32:58.307Z,11.74
2023-04-25T16:35:37.076Z,11.72
2023-04-25T16:38:26.967Z,11.79
2023-04-25T16:40:55.145Z,11.13
2023-04-25T16:43:22.918Z,11.71
2023-04-25T16:45:50.727Z,11.32
2023-04-25T16:48:20.842Z,11.15
2023-04-25T16:50:48.673Z,11.25
2023-04-25T16:53:17.474Z,11.30
2023-04-25T16:55:45.640Z,11.45
2023-04-25T16:58:14.462Z,11.74
2023-04-25T17:00:42.872Z,11.53
2023-04-25T17:03:11.005Z,11.47
2023-04-25T17:05:40.681Z,11.54
2023-04-25T17:08:08.496Z,10.99
2023-04-25T17:10:36.424Z,10.60
2023-04-25T17:13:04.255Z,10.58
2023-04-25T17:15:34.162Z,10.44
2023-04-25T17:18:02.395Z,10.35
2023-04-25T17:20:30.266Z,9.91
2023-04-25T17:22:59.880Z,10.15
2023-04-25T17:25:27.769Z,10.06
2023-04-25T17:27:55.914Z,10.04
2023-04-25T17:30:24.073Z,10.04
2023-04-25T17:32:52.404Z,10.08
2023-04-25T17:35:20.631Z,9.96
2023-04-25T17:37:51.406Z,9.66
2023-04-25T17:40:21.471Z,9.89
2023-04-25T17:42:49.320Z,9.93
2023-04-25T17:45:17.687Z,9.87
2023-04-25T17:47:45.673Z,9.87
2023-04-25T17:50:16.579Z,10.03
2023-04-25T17:52:48.253Z,9.89
2023-04-25T17:55:16.174Z,9.71
2023-04-25T17:57:45.330Z,9.66
2023-04-25T18:00:14.059Z,9.67
2023-04-25T18:02:41.968Z,9.97
2023-04-25T18:05:10.925Z,9.62
2023-04-25T18:07:39.239Z,9.52
2023-04-25T18:10:10.147Z,9.70
2023-04-25T18:12:38.305Z,9.55
2023-04-25T18:15:09.274Z,9.59
2023-04-25T18:17:40.393Z,9.43
2023-04-25T18:20:11.976Z,9.40
2023-04-25T18:22:40.320Z,9.50
2023-04-25T18:25:10.185Z,9.16
2023-04-25T18:27:38.402Z,9.21
2023-04-25T18:30:10.640Z,9.30
2023-04-25T18:32:39.195Z,9.05
2023-04-25T18:35:10.001Z,9.00
2023-04-25T18:37:40.186Z,9.07
2023-04-25T18:40:12.908Z,9.08
2023-04-25T18:42:40.795Z,9.06
2023-04-25T18:45:11.928Z,8.99
2023-04-25T18:47:39.846Z,9.11
2023-04-25T18:50:09.389Z,9.12
2023-04-25T18:52:37.330Z,9.02
2023-04-25T18:55:05.856Z,9.08
2023-04-25T18:57:34.452Z,9.16
2023-04-25T19:00:05.263Z,9.08
2023-04-25T19:02:36.998Z,9.02
2023-04-25T19:05:05.693Z,9.05
2023-04-25T19:07:33.481Z,8.82
2023-04-25T19:10:01.337Z,8.98
2023-04-25T19:12:29.134Z,8.86
2023-04-25T19:14:57.135Z,8.70
2023-04-25T19:17:25.330Z,8.64
2023-04-25T19:19:54.616Z,8.70
2023-04-25T19:22:22.453Z,8.60
2023-04-25T19:24:55.681Z,8.75
2023-04-25T19:27:37.050Z,8.63
2023-04-25T19:30:08.813Z,8.67
2023-04-25T19:32:37.072Z,8.74
2023-04-25T19:35:10.893Z,8.89
2023-04-25T19:37:41.108Z,8.90
2023-04-25T19:40:10.252Z,8.76
2023-04-25T19:42:38.061Z,8.60
2023-04-25T19:45:06.934Z,8.50
2023-04-25T19:47:38.494Z,8.41
2023-04-25T19:50:10.482Z,8.37
2023-04-25T19:52:38.925Z,8.39
2023-04-25T19:55:08.169Z,8.43
2023-04-25T19:57:38.122Z,8.47
2023-04-25T20:00:10.905Z,8.34
2023-04-25T20:02:39.503Z,8.47
2023-04-25T20:05:10.110Z,8.62
2023-04-25T20:07:37.916Z,8.58
2023-04-25T20:10:07.983Z,8.53
2023-04-25T20:12:37.695Z,8.47
2023-04-25T20:15:06.761Z,8.43
2023-04-25T20:17:34.771Z,8.45
2023-04-25T20:20:04.104Z,8.46
2023-04-25T20:22:36.270Z,8.76
2023-04-25T20:25:05.486Z,8.80
2023-04-25T20:27:33.412Z,8.53
2023-04-25T20:30:04.948Z,8.64
2023-04-25T20:32:41.053Z,8.82
2023-04-25T20:35:10.750Z,8.57
2023-04-25T20:37:39.998Z,8.44
2023-04-25T20:40:09.838Z,8.47
2023-04-25T20:42:38.343Z,8.43
2023-04-25T20:45:12.542Z,8.19
2023-04-25T20:47:41.426Z,8.16
2023-04-25T20:50:10.981Z,8.22
2023-04-25T20:52:40.142Z,8.15
2023-04-25T20:55:10.875Z,8.08
2023-04-25T20:57:39.008Z,8.06
2023-04-25T21:00:15.992Z,7.85
2023-04-25T21:02:43.873Z,7.91
2023-04-25T21:05:11.913Z,7.87
2023-04-25T21:07:41.228Z,7.61
2023-04-25T21:10:09.667Z,7.88
2023-04-25T21:12:37.548Z,7.80
2023-04-25T21:15:05.995Z,7.75
2023-04-25T21:17:33.996Z,7.61
2023-04-25T21:20:01.871Z,7.52
2023-04-25T21:22:29.987Z,7.52
2023-04-25T21:25:05.931Z,7.68
2023-04-25T21:27:34.261Z,7.61
2023-04-25T21:30:02.173Z,7.45
2023-04-25T21:32:31.341Z,7.65
2023-04-25T21:34:59.248Z,7.72
2023-04-25T21:37:27.068Z,7.65
2023-04-25T21:39:55.753Z,7.53
2023-04-25T21:42:25.098Z,7.49
2023-04-25T21:44:52.982Z,7.58
2023-04-25T21:47:21.124Z,7.51
2023-04-25T21:49:49.081Z,7.40
2023-04-25T21:52:16.945Z,7.39
2023-04-25T21:54:44.765Z,7.66
2023-04-25T21:57:12.798Z,7.54
2023-04-25T21:59:42.026Z,7.51
2023-04-25T22:02:10.506Z,7.12
2023-04-25T22:04:38.709Z,7.23
2023-04-25T22:07:06.650Z,7.60
2023-04-25T22:09:43.842Z,7.39
2023-04-25T22:12:19.677Z,7.26
2023-04-25T22:14:49.041Z,7.05
2023-04-25T22:17:17.882Z,7.52
2023-04-25T22:19:46.631Z,7.58
2023-04-25T22:22:14.456Z,7.52
2023-04-25T22:24:42.442Z,7.28
2023-04-25T22:27:11.305Z,7.09
2023-04-25T22:29:39.193Z,6.95
2023-04-25T22:32:08.825Z,7.42
2023-04-25T22:34:37.020Z,7.15
2023-04-25T22:37:04.822Z,7.08
2023-04-25T22:39:32.585Z,6.92
2023-04-25T22:42:00.669Z,6.76
2023-04-25T22:44:28.634Z,6.13
2023-04-25T22:46:56.529Z,6.47
2023-04-25T22:49:26.640Z,6.63
2023-04-25T22:51:56.794Z,6.57
2023-04-25T22:54:24.740Z,6.50
2023-04-25T22:56:52.845Z,6.27
2023-04-25T22:59:21.098Z,6.37
2023-04-25T23:01:50.025Z,6.25
2023-04-25T23:04:19.080Z,6.47
2023-04-25T23:06:48.784Z,6.61
2023-04-25T23:09:17.023Z,6.67
2023-04-25T23:11:44.877Z,6.75
2023-04-25T23:14:13.026Z,6.75
2023-04-25T23:16:41.763Z,6.60
2023-04-25T23:19:09.627Z,6.77
2023-04-25T23:21:37.433Z,6.53
2023-04-25T23:24:07.291Z,6.42
2023-04-25T23:26:35.187Z,6.37
2023-04-25T23:29:02.971Z,6.43
2023-04-25T23:31:32.309Z,6.47
2023-04-25T23:34:00.294Z,6.48
2023-04-25T23:36:28.164Z,6.39
2023-04-25T23:38:56.366Z,6.04
2023-04-25T23:41:26.180Z,6.37
2023-04-25T23:43:53.975Z,6.46
2023-04-25T23:46:22.065Z,6.52
2023-04-25T23:48:50.275Z,6.58
2023-04-25T23:51:18.382Z,6.32
2023-04-25T23:53:46.207Z,6.14
2023-04-25T23:56:14.384Z,6.15
2023-04-25T23:58:43.551Z,6.15
